sensor_id;sensor_type;location;lat;lon;timestamp;P1;durP1;ratioP1;P2;durP2;ratioP2
72547;SDS011;60570;50.848;6.776;2022-12-16T00:01:10;31.77;;;17.27;;
72547;SDS011;60570;50.848;6.776;2022-12-16T00:02:18;37.00;;;17.73;;
72547;SDS011;60570;50.848;6.776;2022-12-16T00:03:18;32.50;;;16.45;;
72547;SDS011;60570;50.848;6.776;2022-12-16T00:04:19;33.38;;;17.88;;
72547;SDS011;60570;50.848;6.776;2022-12-16T00:05:19;34.80;;;17.98;;
72547;SDS011;60570;50.848;6.776;2022-12-16T00:06:20;36.78;;;18.15;;
72547;SDS011;60570;50.848;6.776;2022-12-16T00:07:21;32.47;;;17.55;;
72547;SDS011;60570;50.848;6.776;2022-12-16T00:08:22;34.17;;;17.08;;
72547;SDS011;60570;50.848;6.776;2022-12-16T00:09:23;34.08;;;18.30;;
72547;SDS011;60570;50.848;6.776;2022-12-16T00:10:23;35.40;;;16.77;;
72547;SDS011;60570;50.848;6.776;2022-12-16T00:11:24;35.35;;;17.90;;
72547;SDS011;60570;50.848;6.776;2022-12-16T00:12:24;38.40;;;17.88;;
72547;SDS011;60570;50.848;6.776;2022-12-16T00:13:25;34.80;;;16.85;;
72547;SDS011;60570;50.848;6.776;2022-12-16T00:14:26;31.38;;;16.42;;
72547;SDS011;60570;50.848;6.776;2022-12-16T00:15:28;33.80;;;16.65;;
72547;SDS011;60570;50.848;6.776;2022-12-16T00:16:28;35.78;;;18.95;;
72547;SDS011;60570;50.848;6.776;2022-12-16T00:17:29;34.88;;;17.65;;
72547;SDS011;60570;50.848;6.776;2022-12-16T00:18:29;34.05;;;17.70;;
72547;SDS011;60570;50.848;6.776;2022-12-16T00:19:30;34.35;;;16.13;;
72547;SDS011;60570;50.848;6.776;2022-12-16T00:20:30;35.42;;;17.02;;
72547;SDS011;60570;50.848;6.776;2022-12-16T00:21:31;35.38;;;16.70;;
72547;SDS011;60570;50.848;6.776;2022-12-16T00:22:31;31.77;;;17.40;;
72547;SDS011;60570;50.848;6.776;2022-12-16T00:23:32;30.40;;;15.65;;
72547;SDS011;60570;50.848;6.776;2022-12-16T00:24:33;31.00;;;16.60;;
72547;SDS011;60570;50.848;6.776;2022-12-16T00:25:34;34.45;;;16.70;;
72547;SDS011;60570;50.848;6.776;2022-12-16T00:26:34;30.65;;;15.50;;
72547;SDS011;60570;50.848;6.776;2022-12-16T00:27:34;29.85;;;16.02;;
72547;SDS011;60570;50.848;6.776;2022-12-16T00:28:35;32.50;;;16.98;;
72547;SDS011;60570;50.848;6.776;2022-12-16T00:29:36;34.65;;;16.48;;
72547;SDS011;60570;50.848;6.776;2022-12-16T00:30:37;32.13;;;16.33;;
72547;SDS011;60570;50.848;6.776;2022-12-16T00:31:38;32.80;;;16.58;;
72547;SDS011;60570;50.848;6.776;2022-12-16T00:32:38;32.00;;;15.75;;
72547;SDS011;60570;50.848;6.776;2022-12-16T00:33:38;33.22;;;15.93;;
72547;SDS011;60570;50.848;6.776;2022-12-16T00:34:39;31.45;;;15.90;;
72547;SDS011;60570;50.848;6.776;2022-12-16T00:35:39;30.80;;;15.38;;
72547;SDS011;60570;50.848;6.776;2022-12-16T00:36:40;33.22;;;15.88;;
72547;SDS011;60570;50.848;6.776;2022-12-16T00:37:40;30.73;;;15.30;;
72547;SDS011;60570;50.848;6.776;2022-12-16T00:38:41;31.10;;;15.80;;
72547;SDS011;60570;50.848;6.776;2022-12-16T00:39:41;27.65;;;14.10;;
72547;SDS011;60570;50.848;6.776;2022-12-16T00:40:42;31.67;;;16.27;;
72547;SDS011;60570;50.848;6.776;2022-12-16T00:41:43;33.80;;;16.02;;
72547;SDS011;60570;50.848;6.776;2022-12-16T00:42:43;30.70;;;16.13;;
72547;SDS011;60570;50.848;6.776;2022-12-16T00:43:44;31.42;;;15.57;;
72547;SDS011;60570;50.848;6.776;2022-12-16T00:44:44;29.15;;;15.07;;
72547;SDS011;60570;50.848;6.776;2022-12-16T00:45:45;30.58;;;15.35;;
72547;SDS011;60570;50.848;6.776;2022-12-16T00:46:46;31.52;;;15.13;;
72547;SDS011;60570;50.848;6.776;2022-12-16T00:47:47;28.85;;;14.95;;
72547;SDS011;60570;50.848;6.776;2022-12-16T00:48:49;31.63;;;14.32;;
72547;SDS011;60570;50.848;6.776;2022-12-16T00:49:49;28.85;;;14.75;;
72547;SDS011;60570;50.848;6.776;2022-12-16T00:50:50;27.80;;;14.45;;
72547;SDS011;60570;50.848;6.776;2022-12-16T00:51:52;30.85;;;15.23;;
72547;SDS011;60570;50.848;6.776;2022-12-16T00:52:52;31.88;;;14.90;;
72547;SDS011;60570;50.848;6.776;2022-12-16T00:53:53;32.13;;;16.58;;
72547;SDS011;60570;50.848;6.776;2022-12-16T00:54:53;30.95;;;15.80;;
72547;SDS011;60570;50.848;6.776;2022-12-16T00:56:06;30.73;;;15.15;;
72547;SDS011;60570;50.848;6.776;2022-12-16T00:57:08;27.15;;;14.23;;
72547;SDS011;60570;50.848;6.776;2022-12-16T00:58:09;28.60;;;14.20;;
72547;SDS011;60570;50.848;6.776;2022-12-16T00:59:09;26.17;;;13.45;;
72547;SDS011;60570;50.848;6.776;2022-12-16T01:00:11;26.13;;;13.57;;
72547;SDS011;60570;50.848;6.776;2022-12-16T01:01:13;30.27;;;13.82;;
72547;SDS011;60570;50.848;6.776;2022-12-16T01:02:14;27.83;;;14.30;;
72547;SDS011;60570;50.848;6.776;2022-12-16T01:03:14;29.52;;;15.10;;
72547;SDS011;60570;50.848;6.776;2022-12-16T01:04:15;28.40;;;14.10;;
72547;SDS011;60570;50.848;6.776;2022-12-16T01:05:16;30.25;;;15.25;;
72547;SDS011;60570;50.848;6.776;2022-12-16T01:06:19;29.45;;;14.90;;
72547;SDS011;60570;50.848;6.776;2022-12-16T01:07:20;28.90;;;14.80;;
72547;SDS011;60570;50.848;6.776;2022-12-16T01:08:20;29.83;;;14.75;;
72547;SDS011;60570;50.848;6.776;2022-12-16T01:09:21;26.98;;;14.10;;
72547;SDS011;60570;50.848;6.776;2022-12-16T01:10:22;27.33;;;14.02;;
72547;SDS011;60570;50.848;6.776;2022-12-16T01:11:24;29.60;;;13.95;;
72547;SDS011;60570;50.848;6.776;2022-12-16T01:12:24;26.52;;;13.68;;
72547;SDS011;60570;50.848;6.776;2022-12-16T01:13:25;26.27;;;13.70;;
72547;SDS011;60570;50.848;6.776;2022-12-16T01:14:25;27.77;;;13.35;;
72547;SDS011;60570;50.848;6.776;2022-12-16T01:15:26;26.98;;;13.23;;
72547;SDS011;60570;50.848;6.776;2022-12-16T01:16:26;26.98;;;13.55;;
72547;SDS011;60570;50.848;6.776;2022-12-16T01:17:27;28.77;;;14.75;;
72547;SDS011;60570;50.848;6.776;2022-12-16T01:18:27;26.88;;;13.60;;
72547;SDS011;60570;50.848;6.776;2022-12-16T01:19:28;27.73;;;13.75;;
72547;SDS011;60570;50.848;6.776;2022-12-16T01:20:28;32.25;;;14.85;;
72547;SDS011;60570;50.848;6.776;2022-12-16T01:21:28;28.75;;;14.02;;
72547;SDS011;60570;50.848;6.776;2022-12-16T01:22:29;25.60;;;13.30;;
72547;SDS011;60570;50.848;6.776;2022-12-16T01:23:32;25.83;;;14.20;;
72547;SDS011;60570;50.848;6.776;2022-12-16T01:24:32;25.35;;;12.82;;
72547;SDS011;60570;50.848;6.776;2022-12-16T01:25:33;25.50;;;13.40;;
72547;SDS011;60570;50.848;6.776;2022-12-16T01:26:33;28.45;;;13.68;;
72547;SDS011;60570;50.848;6.776;2022-12-16T01:27:34;25.83;;;13.13;;
72547;SDS011;60570;50.848;6.776;2022-12-16T01:28:34;28.25;;;13.85;;
72547;SDS011;60570;50.848;6.776;2022-12-16T01:29:34;28.92;;;13.65;;
72547;SDS011;60570;50.848;6.776;2022-12-16T01:30:35;31.95;;;13.90;;
72547;SDS011;60570;50.848;6.776;2022-12-16T01:31:35;24.95;;;12.07;;
72547;SDS011;60570;50.848;6.776;2022-12-16T01:32:37;26.92;;;13.45;;
72547;SDS011;60570;50.848;6.776;2022-12-16T01:33:37;24.90;;;13.00;;
72547;SDS011;60570;50.848;6.776;2022-12-16T01:34:38;29.20;;;12.65;;
72547;SDS011;60570;50.848;6.776;2022-12-16T01:35:38;28.20;;;13.02;;
72547;SDS011;60570;50.848;6.776;2022-12-16T01:36:39;25.70;;;12.55;;
72547;SDS011;60570;50.848;6.776;2022-12-16T01:37:39;29.30;;;13.40;;
72547;SDS011;60570;50.848;6.776;2022-12-16T01:38:40;27.25;;;12.88;;
72547;SDS011;60570;50.848;6.776;2022-12-16T01:39:43;25.83;;;12.93;;
72547;SDS011;60570;50.848;6.776;2022-12-16T01:40:43;24.48;;;13.45;;
72547;SDS011;60570;50.848;6.776;2022-12-16T01:41:44;26.65;;;12.90;;
72547;SDS011;60570;50.848;6.776;2022-12-16T01:42:44;25.83;;;13.57;;
72547;SDS011;60570;50.848;6.776;2022-12-16T01:43:45;25.75;;;12.57;;
72547;SDS011;60570;50.848;6.776;2022-12-16T01:44:46;26.27;;;13.35;;
72547;SDS011;60570;50.848;6.776;2022-12-16T01:45:48;25.52;;;13.77;;
72547;SDS011;60570;50.848;6.776;2022-12-16T01:46:56;27.55;;;13.90;;
72547;SDS011;60570;50.848;6.776;2022-12-16T01:48:29;26.15;;;12.82;;
72547;SDS011;60570;50.848;6.776;2022-12-16T01:50:43;25.30;;;13.07;;
72547;SDS011;60570;50.848;6.776;2022-12-16T01:51:44;27.45;;;12.30;;
72547;SDS011;60570;50.848;6.776;2022-12-16T01:52:47;27.48;;;12.95;;
72547;SDS011;60570;50.848;6.776;2022-12-16T01:53:54;22.23;;;11.88;;
72547;SDS011;60570;50.848;6.776;2022-12-16T01:55:17;26.58;;;12.43;;
72547;SDS011;60570;50.848;6.776;2022-12-16T01:56:23;28.23;;;14.45;;
72547;SDS011;60570;50.848;6.776;2022-12-16T01:57:36;27.58;;;13.63;;
72547;SDS011;60570;50.848;6.776;2022-12-16T01:58:43;26.65;;;12.57;;
72547;SDS011;60570;50.848;6.776;2022-12-16T01:59:45;29.02;;;13.18;;
72547;SDS011;60570;50.848;6.776;2022-12-16T02:00:50;26.80;;;12.43;;
72547;SDS011;60570;50.848;6.776;2022-12-16T02:01:51;27.05;;;13.27;;
72547;SDS011;60570;50.848;6.776;2022-12-16T02:02:52;25.50;;;13.13;;
72547;SDS011;60570;50.848;6.776;2022-12-16T02:03:54;23.05;;;12.43;;
72547;SDS011;60570;50.848;6.776;2022-12-16T02:04:57;26.45;;;12.38;;
72547;SDS011;60570;50.848;6.776;2022-12-16T02:06:16;26.50;;;13.77;;
72547;SDS011;60570;50.848;6.776;2022-12-16T02:07:17;23.17;;;12.38;;
72547;SDS011;60570;50.848;6.776;2022-12-16T02:08:18;26.70;;;13.40;;
72547;SDS011;60570;50.848;6.776;2022-12-16T02:09:19;23.90;;;12.13;;
72547;SDS011;60570;50.848;6.776;2022-12-16T02:10:20;27.77;;;12.57;;
72547;SDS011;60570;50.848;6.776;2022-12-16T02:12:55;27.80;;;13.13;;
72547;SDS011;60570;50.848;6.776;2022-12-16T02:24:51;25.05;;;12.27;;
72547;SDS011;60570;50.848;6.776;2022-12-16T02:39:36;24.90;;;10.70;;
72547;SDS011;60570;50.848;6.776;2022-12-16T02:43:06;22.40;;;10.73;;
72547;SDS011;60570;50.848;6.776;2022-12-16T02:44:14;22.52;;;10.25;;
72547;SDS011;60570;50.848;6.776;2022-12-16T02:45:17;22.67;;;11.60;;
72547;SDS011;60570;50.848;6.776;2022-12-16T02:46:23;22.48;;;11.15;;
72547;SDS011;60570;50.848;6.776;2022-12-16T02:47:26;22.00;;;10.77;;
72547;SDS011;60570;50.848;6.776;2022-12-16T02:48:27;23.83;;;11.15;;
72547;SDS011;60570;50.848;6.776;2022-12-16T02:50:32;22.33;;;11.05;;
72547;SDS011;60570;50.848;6.776;2022-12-16T02:51:33;23.25;;;11.48;;
72547;SDS011;60570;50.848;6.776;2022-12-16T02:52:37;23.20;;;11.02;;
72547;SDS011;60570;50.848;6.776;2022-12-16T02:53:37;22.40;;;9.90;;
72547;SDS011;60570;50.848;6.776;2022-12-16T02:54:41;20.77;;;10.77;;
72547;SDS011;60570;50.848;6.776;2022-12-16T02:59:12;21.27;;;10.43;;
72547;SDS011;60570;50.848;6.776;2022-12-16T03:00:26;19.08;;;10.18;;
72547;SDS011;60570;50.848;6.776;2022-12-16T03:02:21;20.63;;;10.25;;
72547;SDS011;60570;50.848;6.776;2022-12-16T03:03:07;18.77;;;9.30;;
72547;SDS011;60570;50.848;6.776;2022-12-16T03:04:21;20.95;;;11.52;;
72547;SDS011;60570;50.848;6.776;2022-12-16T03:05:39;19.27;;;10.27;;
72547;SDS011;60570;50.848;6.776;2022-12-16T03:06:47;23.23;;;11.48;;
72547;SDS011;60570;50.848;6.776;2022-12-16T03:07:50;20.65;;;10.65;;
72547;SDS011;60570;50.848;6.776;2022-12-16T03:08:53;22.88;;;10.52;;
72547;SDS011;60570;50.848;6.776;2022-12-16T03:09:57;23.30;;;10.23;;
72547;SDS011;60570;50.848;6.776;2022-12-16T03:10:59;21.85;;;9.88;;
72547;SDS011;60570;50.848;6.776;2022-12-16T03:12:02;20.55;;;10.43;;
72547;SDS011;60570;50.848;6.776;2022-12-16T03:13:07;21.20;;;10.10;;
72547;SDS011;60570;50.848;6.776;2022-12-16T03:14:12;23.65;;;10.73;;
72547;SDS011;60570;50.848;6.776;2022-12-16T03:15:17;18.42;;;9.50;;
72547;SDS011;60570;50.848;6.776;2022-12-16T03:16:26;20.65;;;10.20;;
72547;SDS011;60570;50.848;6.776;2022-12-16T03:17:29;18.58;;;9.95;;
72547;SDS011;60570;50.848;6.776;2022-12-16T03:18:31;20.92;;;9.40;;
72547;SDS011;60570;50.848;6.776;2022-12-16T03:19:35;20.25;;;10.52;;
72547;SDS011;60570;50.848;6.776;2022-12-16T03:20:42;21.00;;;9.95;;
72547;SDS011;60570;50.848;6.776;2022-12-16T03:23:14;19.25;;;9.63;;
72547;SDS011;60570;50.848;6.776;2022-12-16T03:24:18;19.60;;;10.27;;
72547;SDS011;60570;50.848;6.776;2022-12-16T03:25:20;19.95;;;9.75;;
72547;SDS011;60570;50.848;6.776;2022-12-16T03:26:24;19.33;;;9.73;;
72547;SDS011;60570;50.848;6.776;2022-12-16T03:29:05;16.35;;;9.10;;
72547;SDS011;60570;50.848;6.776;2022-12-16T03:30:16;20.05;;;9.02;;
72547;SDS011;60570;50.848;6.776;2022-12-16T03:32:49;17.63;;;9.27;;
72547;SDS011;60570;50.848;6.776;2022-12-16T03:34:06;22.83;;;10.52;;
72547;SDS011;60570;50.848;6.776;2022-12-16T03:36:19;18.02;;;9.57;;
72547;SDS011;60570;50.848;6.776;2022-12-16T03:37:22;20.30;;;9.68;;
72547;SDS011;60570;50.848;6.776;2022-12-16T03:38:26;18.83;;;9.82;;
72547;SDS011;60570;50.848;6.776;2022-12-16T03:39:27;16.98;;;8.93;;
72547;SDS011;60570;50.848;6.776;2022-12-16T03:40:30;20.17;;;9.68;;
72547;SDS011;60570;50.848;6.776;2022-12-16T03:41:32;17.98;;;8.82;;
72547;SDS011;60570;50.848;6.776;2022-12-16T03:42:34;21.02;;;9.32;;
72547;SDS011;60570;50.848;6.776;2022-12-16T03:43:37;16.83;;;8.48;;
72547;SDS011;60570;50.848;6.776;2022-12-16T03:44:37;19.95;;;9.27;;
72547;SDS011;60570;50.848;6.776;2022-12-16T03:45:38;19.40;;;9.38;;
72547;SDS011;60570;50.848;6.776;2022-12-16T03:46:41;19.08;;;9.10;;
72547;SDS011;60570;50.848;6.776;2022-12-16T03:47:46;18.08;;;9.00;;
72547;SDS011;60570;50.848;6.776;2022-12-16T03:48:49;17.88;;;9.07;;
72547;SDS011;60570;50.848;6.776;2022-12-16T03:49:51;18.55;;;9.15;;
72547;SDS011;60570;50.848;6.776;2022-12-16T03:50:51;17.77;;;8.82;;
72547;SDS011;60570;50.848;6.776;2022-12-16T03:51:52;22.27;;;9.10;;
72547;SDS011;60570;50.848;6.776;2022-12-16T03:52:53;18.92;;;8.77;;
72547;SDS011;60570;50.848;6.776;2022-12-16T03:53:54;17.52;;;9.52;;
72547;SDS011;60570;50.848;6.776;2022-12-16T03:54:54;17.88;;;8.75;;
72547;SDS011;60570;50.848;6.776;2022-12-16T03:55:55;17.65;;;9.40;;
72547;SDS011;60570;50.848;6.776;2022-12-16T03:56:57;19.30;;;9.02;;
72547;SDS011;60570;50.848;6.776;2022-12-16T03:57:57;18.70;;;9.18;;
72547;SDS011;60570;50.848;6.776;2022-12-16T03:58:58;17.75;;;8.55;;
72547;SDS011;60570;50.848;6.776;2022-12-16T03:59:59;18.05;;;9.13;;
72547;SDS011;60570;50.848;6.776;2022-12-16T04:01:00;18.38;;;9.05;;
72547;SDS011;60570;50.848;6.776;2022-12-16T04:02:00;19.27;;;8.80;;
72547;SDS011;60570;50.848;6.776;2022-12-16T04:03:01;17.88;;;8.60;;
72547;SDS011;60570;50.848;6.776;2022-12-16T04:04:01;18.77;;;9.70;;
72547;SDS011;60570;50.848;6.776;2022-12-16T04:05:02;16.85;;;8.60;;
72547;SDS011;60570;50.848;6.776;2022-12-16T04:06:03;17.67;;;8.90;;
72547;SDS011;60570;50.848;6.776;2022-12-16T04:07:04;18.33;;;8.02;;
72547;SDS011;60570;50.848;6.776;2022-12-16T04:08:20;18.27;;;9.02;;
72547;SDS011;60570;50.848;6.776;2022-12-16T04:09:20;15.60;;;8.13;;
72547;SDS011;60570;50.848;6.776;2022-12-16T04:10:20;18.10;;;8.70;;
72547;SDS011;60570;50.848;6.776;2022-12-16T04:11:41;16.88;;;7.53;;
72547;SDS011;60570;50.848;6.776;2022-12-16T04:13:00;18.27;;;8.23;;
72547;SDS011;60570;50.848;6.776;2022-12-16T04:14:19;17.10;;;7.70;;
72547;SDS011;60570;50.848;6.776;2022-12-16T04:15:38;16.38;;;8.70;;
72547;SDS011;60570;50.848;6.776;2022-12-16T04:16:57;20.70;;;8.45;;
72547;SDS011;60570;50.848;6.776;2022-12-16T04:18:19;18.08;;;8.55;;
72547;SDS011;60570;50.848;6.776;2022-12-16T04:19:52;16.55;;;7.25;;
72547;SDS011;60570;50.848;6.776;2022-12-16T04:21:11;16.00;;;8.13;;
72547;SDS011;60570;50.848;6.776;2022-12-16T04:22:31;14.90;;;7.70;;
72547;SDS011;60570;50.848;6.776;2022-12-16T04:23:54;17.73;;;7.95;;
72547;SDS011;60570;50.848;6.776;2022-12-16T04:25:18;16.40;;;7.35;;
72547;SDS011;60570;50.848;6.776;2022-12-16T04:26:21;18.15;;;8.13;;
72547;SDS011;60570;50.848;6.776;2022-12-16T04:27:22;15.75;;;7.65;;
72547;SDS011;60570;50.848;6.776;2022-12-16T04:28:26;14.73;;;7.50;;
72547;SDS011;60570;50.848;6.776;2022-12-16T04:29:26;15.65;;;7.55;;
72547;SDS011;60570;50.848;6.776;2022-12-16T04:30:29;17.83;;;7.93;;
72547;SDS011;60570;50.848;6.776;2022-12-16T04:31:33;15.13;;;7.43;;
72547;SDS011;60570;50.848;6.776;2022-12-16T04:32:34;14.20;;;7.53;;
72547;SDS011;60570;50.848;6.776;2022-12-16T04:33:53;15.73;;;7.75;;
72547;SDS011;60570;50.848;6.776;2022-12-16T04:35:12;17.40;;;7.88;;
72547;SDS011;60570;50.848;6.776;2022-12-16T04:36:31;15.38;;;7.97;;
72547;SDS011;60570;50.848;6.776;2022-12-16T04:37:49;18.88;;;8.43;;
72547;SDS011;60570;50.848;6.776;2022-12-16T04:39:09;16.80;;;7.95;;
72547;SDS011;60570;50.848;6.776;2022-12-16T04:40:27;16.92;;;7.57;;
72547;SDS011;60570;50.848;6.776;2022-12-16T04:41:46;15.00;;;7.75;;
72547;SDS011;60570;50.848;6.776;2022-12-16T04:43:05;15.25;;;6.97;;
72547;SDS011;60570;50.848;6.776;2022-12-16T04:44:34;13.68;;;7.10;;
72547;SDS011;60570;50.848;6.776;2022-12-16T04:45:54;13.95;;;6.97;;
72547;SDS011;60570;50.848;6.776;2022-12-16T04:47:12;16.67;;;7.47;;
72547;SDS011;60570;50.848;6.776;2022-12-16T04:48:31;15.95;;;7.53;;
72547;SDS011;60570;50.848;6.776;2022-12-16T04:49:54;14.55;;;7.18;;
72547;SDS011;60570;50.848;6.776;2022-12-16T04:51:13;14.93;;;7.03;;
72547;SDS011;60570;50.848;6.776;2022-12-16T04:52:32;14.70;;;7.30;;
72547;SDS011;60570;50.848;6.776;2022-12-16T04:53:51;13.77;;;7.35;;
72547;SDS011;60570;50.848;6.776;2022-12-16T04:55:10;14.70;;;7.25;;
72547;SDS011;60570;50.848;6.776;2022-12-16T04:56:29;16.10;;;8.23;;
72547;SDS011;60570;50.848;6.776;2022-12-16T04:57:55;15.75;;;7.70;;
72547;SDS011;60570;50.848;6.776;2022-12-16T04:59:17;16.60;;;7.20;;
72547;SDS011;60570;50.848;6.776;2022-12-16T05:00:36;14.63;;;7.10;;
72547;SDS011;60570;50.848;6.776;2022-12-16T05:01:55;15.63;;;7.07;;
72547;SDS011;60570;50.848;6.776;2022-12-16T05:03:14;15.00;;;6.88;;
72547;SDS011;60570;50.848;6.776;2022-12-16T05:04:33;16.30;;;7.00;;
72547;SDS011;60570;50.848;6.776;2022-12-16T05:05:52;14.48;;;7.38;;
72547;SDS011;60570;50.848;6.776;2022-12-16T05:07:11;15.82;;;7.05;;
72547;SDS011;60570;50.848;6.776;2022-12-16T05:08:30;17.58;;;7.40;;
72547;SDS011;60570;50.848;6.776;2022-12-16T05:09:49;13.48;;;6.85;;
72547;SDS011;60570;50.848;6.776;2022-12-16T05:11:07;17.58;;;7.72;;
72547;SDS011;60570;50.848;6.776;2022-12-16T05:12:27;17.52;;;7.05;;
72547;SDS011;60570;50.848;6.776;2022-12-16T05:13:46;12.30;;;6.70;;
72547;SDS011;60570;50.848;6.776;2022-12-16T05:15:05;16.15;;;7.28;;
72547;SDS011;60570;50.848;6.776;2022-12-16T05:16:24;13.77;;;6.32;;
72547;SDS011;60570;50.848;6.776;2022-12-16T05:17:43;16.83;;;6.60;;
72547;SDS011;60570;50.848;6.776;2022-12-16T05:19:02;14.10;;;6.32;;
72547;SDS011;60570;50.848;6.776;2022-12-16T05:20:20;14.50;;;6.85;;
72547;SDS011;60570;50.848;6.776;2022-12-16T05:21:39;13.65;;;6.28;;
72547;SDS011;60570;50.848;6.776;2022-12-16T05:22:58;14.65;;;6.78;;
72547;SDS011;60570;50.848;6.776;2022-12-16T05:24:17;14.13;;;7.18;;
72547;SDS011;60570;50.848;6.776;2022-12-16T05:25:36;15.18;;;7.55;;
72547;SDS011;60570;50.848;6.776;2022-12-16T05:26:54;17.70;;;7.72;;
72547;SDS011;60570;50.848;6.776;2022-12-16T05:28:14;16.50;;;7.20;;
72547;SDS011;60570;50.848;6.776;2022-12-16T05:29:32;14.10;;;7.40;;
72547;SDS011;60570;50.848;6.776;2022-12-16T05:30:51;16.77;;;6.78;;
72547;SDS011;60570;50.848;6.776;2022-12-16T05:32:11;12.48;;;6.68;;
72547;SDS011;60570;50.848;6.776;2022-12-16T05:33:30;16.23;;;7.10;;
72547;SDS011;60570;50.848;6.776;2022-12-16T05:34:49;18.02;;;7.25;;
72547;SDS011;60570;50.848;6.776;2022-12-16T05:36:08;16.40;;;7.03;;
72547;SDS011;60570;50.848;6.776;2022-12-16T05:37:27;14.85;;;6.85;;
72547;SDS011;60570;50.848;6.776;2022-12-16T05:38:46;14.30;;;7.00;;
72547;SDS011;60570;50.848;6.776;2022-12-16T05:40:06;15.50;;;7.82;;
72547;SDS011;60570;50.848;6.776;2022-12-16T05:41:31;15.35;;;7.60;;
72547;SDS011;60570;50.848;6.776;2022-12-16T05:42:50;18.45;;;6.80;;
72547;SDS011;60570;50.848;6.776;2022-12-16T05:44:09;14.88;;;7.70;;
72547;SDS011;60570;50.848;6.776;2022-12-16T05:45:28;16.42;;;6.78;;
72547;SDS011;60570;50.848;6.776;2022-12-16T05:46:47;17.63;;;7.85;;
72547;SDS011;60570;50.848;6.776;2022-12-16T05:48:06;14.40;;;6.70;;
72547;SDS011;60570;50.848;6.776;2022-12-16T05:49:25;16.88;;;6.97;;
72547;SDS011;60570;50.848;6.776;2022-12-16T05:50:44;16.02;;;7.32;;
72547;SDS011;60570;50.848;6.776;2022-12-16T05:52:02;14.88;;;6.93;;
72547;SDS011;60570;50.848;6.776;2022-12-16T05:53:22;17.27;;;7.15;;
72547;SDS011;60570;50.848;6.776;2022-12-16T05:54:41;17.08;;;8.25;;
72547;SDS011;60570;50.848;6.776;2022-12-16T05:56:04;16.25;;;7.80;;
72547;SDS011;60570;50.848;6.776;2022-12-16T05:57:23;14.35;;;7.10;;
72547;SDS011;60570;50.848;6.776;2022-12-16T05:58:59;18.27;;;7.82;;
72547;SDS011;60570;50.848;6.776;2022-12-16T06:00:18;16.08;;;7.65;;
72547;SDS011;60570;50.848;6.776;2022-12-16T06:01:37;16.05;;;8.43;;
72547;SDS011;60570;50.848;6.776;2022-12-16T06:02:56;15.15;;;7.07;;
72547;SDS011;60570;50.848;6.776;2022-12-16T06:04:15;17.38;;;7.55;;
72547;SDS011;60570;50.848;6.776;2022-12-16T06:05:34;14.23;;;6.80;;
72547;SDS011;60570;50.848;6.776;2022-12-16T06:06:53;18.23;;;7.65;;
72547;SDS011;60570;50.848;6.776;2022-12-16T06:08:12;17.52;;;7.40;;
72547;SDS011;60570;50.848;6.776;2022-12-16T06:09:31;17.20;;;7.07;;
72547;SDS011;60570;50.848;6.776;2022-12-16T06:10:49;14.73;;;7.32;;
72547;SDS011;60570;50.848;6.776;2022-12-16T06:12:08;17.55;;;7.55;;
72547;SDS011;60570;50.848;6.776;2022-12-16T06:13:27;15.43;;;6.97;;
72547;SDS011;60570;50.848;6.776;2022-12-16T06:14:46;17.63;;;7.93;;
72547;SDS011;60570;50.848;6.776;2022-12-16T06:16:05;18.02;;;8.23;;
72547;SDS011;60570;50.848;6.776;2022-12-16T06:17:24;17.05;;;8.38;;
72547;SDS011;60570;50.848;6.776;2022-12-16T06:18:43;16.92;;;8.57;;
72547;SDS011;60570;50.848;6.776;2022-12-16T06:20:02;15.38;;;7.00;;
72547;SDS011;60570;50.848;6.776;2022-12-16T06:21:22;17.95;;;7.07;;
72547;SDS011;60570;50.848;6.776;2022-12-16T06:22:40;17.33;;;7.70;;
72547;SDS011;60570;50.848;6.776;2022-12-16T06:24:00;17.10;;;7.13;;
72547;SDS011;60570;50.848;6.776;2022-12-16T06:25:18;16.63;;;7.90;;
72547;SDS011;60570;50.848;6.776;2022-12-16T06:26:38;18.95;;;7.22;;
72547;SDS011;60570;50.848;6.776;2022-12-16T06:27:56;14.75;;;7.10;;
72547;SDS011;60570;50.848;6.776;2022-12-16T06:29:15;14.45;;;6.70;;
72547;SDS011;60570;50.848;6.776;2022-12-16T06:30:34;19.52;;;7.93;;
72547;SDS011;60570;50.848;6.776;2022-12-16T06:31:54;15.45;;;7.25;;
72547;SDS011;60570;50.848;6.776;2022-12-16T06:33:12;14.35;;;6.60;;
72547;SDS011;60570;50.848;6.776;2022-12-16T06:34:31;17.80;;;7.78;;
72547;SDS011;60570;50.848;6.776;2022-12-16T06:35:50;15.82;;;7.88;;
72547;SDS011;60570;50.848;6.776;2022-12-16T06:37:09;17.65;;;7.28;;
72547;SDS011;60570;50.848;6.776;2022-12-16T06:38:28;13.48;;;6.57;;
72547;SDS011;60570;50.848;6.776;2022-12-16T06:39:47;15.20;;;7.10;;
72547;SDS011;60570;50.848;6.776;2022-12-16T06:41:06;14.18;;;6.93;;
72547;SDS011;60570;50.848;6.776;2022-12-16T06:42:25;15.55;;;6.85;;
72547;SDS011;60570;50.848;6.776;2022-12-16T06:43:43;18.95;;;7.88;;
72547;SDS011;60570;50.848;6.776;2022-12-16T06:45:02;15.38;;;7.50;;
72547;SDS011;60570;50.848;6.776;2022-12-16T06:46:22;16.95;;;6.95;;
72547;SDS011;60570;50.848;6.776;2022-12-16T06:47:41;18.23;;;7.55;;
72547;SDS011;60570;50.848;6.776;2022-12-16T06:49:01;14.43;;;6.63;;
72547;SDS011;60570;50.848;6.776;2022-12-16T06:50:20;15.38;;;6.45;;
72547;SDS011;60570;50.848;6.776;2022-12-16T06:51:39;15.60;;;7.95;;
72547;SDS011;60570;50.848;6.776;2022-12-16T06:52:58;14.50;;;7.05;;
72547;SDS011;60570;50.848;6.776;2022-12-16T06:54:17;17.15;;;7.15;;
72547;SDS011;60570;50.848;6.776;2022-12-16T06:55:35;16.15;;;7.80;;
72547;SDS011;60570;50.848;6.776;2022-12-16T06:56:54;16.67;;;6.85;;
72547;SDS011;60570;50.848;6.776;2022-12-16T06:58:23;14.02;;;6.93;;
72547;SDS011;60570;50.848;6.776;2022-12-16T06:59:42;13.40;;;6.88;;
72547;SDS011;60570;50.848;6.776;2022-12-16T07:01:01;14.95;;;6.55;;
72547;SDS011;60570;50.848;6.776;2022-12-16T07:02:20;18.48;;;7.00;;
72547;SDS011;60570;50.848;6.776;2022-12-16T07:03:39;14.48;;;7.25;;
72547;SDS011;60570;50.848;6.776;2022-12-16T07:04:58;15.32;;;7.25;;
72547;SDS011;60570;50.848;6.776;2022-12-16T07:06:16;14.57;;;6.80;;
72547;SDS011;60570;50.848;6.776;2022-12-16T07:07:35;16.33;;;7.07;;
72547;SDS011;60570;50.848;6.776;2022-12-16T07:08:54;12.23;;;7.20;;
72547;SDS011;60570;50.848;6.776;2022-12-16T07:10:13;15.27;;;8.50;;
72547;SDS011;60570;50.848;6.776;2022-12-16T07:11:32;15.25;;;7.25;;
72547;SDS011;60570;50.848;6.776;2022-12-16T07:12:50;13.73;;;6.95;;
72547;SDS011;60570;50.848;6.776;2022-12-16T07:14:09;17.20;;;8.07;;
72547;SDS011;60570;50.848;6.776;2022-12-16T07:15:32;16.15;;;7.95;;
72547;SDS011;60570;50.848;6.776;2022-12-16T07:16:51;15.13;;;7.45;;
72547;SDS011;60570;50.848;6.776;2022-12-16T07:18:09;15.07;;;7.53;;
72547;SDS011;60570;50.848;6.776;2022-12-16T07:19:29;15.40;;;7.05;;
72547;SDS011;60570;50.848;6.776;2022-12-16T07:20:47;15.77;;;7.82;;
72547;SDS011;60570;50.848;6.776;2022-12-16T07:22:06;16.17;;;7.03;;
72547;SDS011;60570;50.848;6.776;2022-12-16T07:23:25;15.73;;;7.65;;
72547;SDS011;60570;50.848;6.776;2022-12-16T07:24:44;16.08;;;7.25;;
72547;SDS011;60570;50.848;6.776;2022-12-16T07:26:03;17.20;;;8.32;;
72547;SDS011;60570;50.848;6.776;2022-12-16T07:27:22;15.48;;;7.80;;
72547;SDS011;60570;50.848;6.776;2022-12-16T07:28:41;15.80;;;7.32;;
72547;SDS011;60570;50.848;6.776;2022-12-16T07:30:01;15.50;;;7.63;;
72547;SDS011;60570;50.848;6.776;2022-12-16T07:31:20;14.63;;;7.72;;